Time;durP1;ratioP1;P1;durP2;ratioP2;P2;SDS_P1;SDS_P2;PMS_P1;PMS_P2;Temp;Humidity;BMP_temperature;BMP_pressure;BME280_temperature;BME280_humidity;BME280_pressure;Samples;Min_cycle;Max_cycle;Signal;HPM_P1;HPM_P2
2024/04/23 00:01:18;;;;;;;13.35;5.50;;;;;;;;;;6064148;27;20016;-70
2024/04/23 00:04:09;;;;;;;13.63;5.93;;;;;;;;;;6047999;27;20039;-69
2024/04/23 00:07:01;;;;;;;14.95;5.72;;;;;;;;;;6073091;27;20008;-70
2024/04/23 00:09:52;;;;;;;8.80;4.20;;;;;;;;;;6072384;27;20011;-70
2024/04/23 00:12:43;;;;;;;12.63;5.43;;;;;;;;;;6062514;27;20040;-70
2024/04/23 00:15:34;;;;;;;8.23;4.20;;;;;;;;;;6039763;27;20021;-70
2024/04/23 00:18:24;;;;;;;11.82;4.47;;;;;;;;;;6071084;27;20014;-70
2024/04/23 00:21:16;;;;;;;6.63;4.15;;;;;;;;;;6072158;27;20344;-70
2024/04/23 00:24:06;;;;;;;6.70;4.32;;;;;;;;;;6029649;27;20037;-69
2024/04/23 00:26:59;;;;;;;6.22;3.95;;;;;;;;;;5968363;27;20045;-70
2024/04/23 00:29:50;;;;;;;7.22;4.20;;;;;;;;;;6045239;27;20039;-70
2024/04/23 00:37:14;;;;;;;8.93;5.15;;;;;;;;;;6030625;27;20087;-70
2024/04/23 00:40:06;;;;;;;8.32;4.85;;;;;;;;;;6031635;27;20060;-69
2024/04/23 00:42:57;;;;;;;13.25;5.72;;;;;;;;;;6033994;27;20008;-70
2024/04/23 00:45:52;;;;;;;7.13;2.00;;;;;;;;;;6004819;27;20023;-70
2024/04/23 00:48:43;;;;;;;6.15;3.80;;;;;;;;;;6031099;27;20008;-70
2024/04/23 00:51:35;;;;;;;8.60;5.60;;;;;;;;;;6033490;27;20045;-70
2024/04/23 00:54:26;;;;;;;8.15;3.17;;;;;;;;;;6032805;27;20018;-70
2024/04/23 00:57:18;;;;;;;3.58;2.92;;;;;;;;;;6033228;27;20018;-70
2024/04/23 01:00:09;;;;;;;7.85;4.18;;;;;;;;;;6032267;27;20008;-70
2024/04/23 01:03:01;;;;;;;7.72;4.30;;;;;;;;;;6032321;27;20854;-70
2024/04/23 01:05:52;;;;;;;10.23;2.92;;;;;;;;;;5995917;27;20344;-70
2024/04/23 01:08:43;;;;;;;8.32;4.03;;;;;;;;;;6002695;27;20012;-70
2024/04/23 01:11:34;;;;;;;8.85;3.88;;;;;;;;;;6032667;27;20015;-70
2024/04/23 01:14:25;;;;;;;9.63;3.65;;;;;;;;;;6032258;27;20020;-70
2024/04/23 01:17:18;;;;;;;5.40;2.60;;;;;;;;;;6032935;27;20019;-70
2024/04/23 01:20:13;;;;;;;6.28;3.13;;;;;;;;;;6003185;27;20018;-70
2024/04/23 01:23:28;;;;;;;6.55;3.05;;;;;;;;;;6004358;27;20018;-69
2024/04/23 01:26:20;;;;;;;6.88;3.95;;;;;;;;;;6032985;27;20076;-70
2024/04/23 01:29:12;;;;;;;6.05;4.05;;;;;;;;;;6031995;27;20095;-70
2024/04/23 01:32:05;;;;;;;6.57;3.55;;;;;;;;;;6004723;27;20008;-69
2024/04/23 01:34:56;;;;;;;11.25;3.15;;;;;;;;;;6032198;27;20020;-70
2024/04/23 01:37:50;;;;;;;6.22;3.78;;;;;;;;;;6032852;27;20371;-70
2024/04/23 01:40:42;;;;;;;5.18;3.28;;;;;;;;;;6031973;27;20008;-70
2024/04/23 01:43:34;;;;;;;12.05;3.97;;;;;;;;;;6003941;27;20020;-70
2024/04/23 01:46:26;;;;;;;8.10;3.40;;;;;;;;;;6032343;27;20475;-70
2024/04/23 01:49:17;;;;;;;6.22;4.18;;;;;;;;;;6031351;27;20008;-70
2024/04/23 01:52:08;;;;;;;6.05;3.13;;;;;;;;;;6031843;27;20017;-69
2024/04/23 01:54:59;;;;;;;3.40;2.63;;;;;;;;;;6032770;27;20474;-70
2024/04/23 01:57:50;;;;;;;5.05;2.88;;;;;;;;;;6032534;27;20331;-70
2024/04/23 02:00:42;;;;;;;9.43;3.47;;;;;;;;;;6031598;27;20518;-70
2024/04/23 02:03:33;;;;;;;6.03;3.13;;;;;;;;;;6031506;27;20012;-70
2024/04/23 02:06:24;;;;;;;6.53;3.17;;;;;;;;;;6003964;27;20008;-69
2024/04/23 02:09:15;;;;;;;6.68;3.72;;;;;;;;;;6003585;27;20008;-70
2024/04/23 02:12:10;;;;;;;9.18;2.60;;;;;;;;;;6031461;27;20064;-69
2024/04/23 02:15:01;;;;;;;5.68;3.42;;;;;;;;;;6003070;27;20008;-69
2024/04/23 02:17:52;;;;;;;6.32;3.05;;;;;;;;;;6031714;27;20503;-70
2024/04/23 02:20:43;;;;;;;12.60;3.58;;;;;;;;;;6003002;27;20035;-70
2024/04/23 02:23:34;;;;;;;4.72;3.03;;;;;;;;;;6039352;27;20454;-70
2024/04/23 02:26:25;;;;;;;10.98;4.10;;;;;;;;;;6070251;27;20044;-70
2024/04/23 02:29:16;;;;;;;7.22;4.13;;;;;;;;;;6041408;27;20408;-70
2024/04/23 02:32:07;;;;;;;7.03;3.10;;;;;;;;;;6038427;27;20020;-69
2024/04/23 02:34:57;;;;;;;11.45;3.95;;;;;;;;;;6062745;27;20095;-70
2024/04/23 02:37:49;;;;;;;2.70;2.30;;;;;;;;;;6070203;27;20008;-70
2024/04/23 02:40:39;;;;;;;6.60;3.30;;;;;;;;;;6059226;27;20036;-70
2024/04/23 02:43:30;;;;;;;9.27;4.00;;;;;;;;;;6037946;27;20090;-70
2024/04/23 02:46:21;;;;;;;7.60;2.92;;;;;;;;;;6069986;27;20020;-70
2024/04/23 02:49:12;;;;;;;6.47;3.90;;;;;;;;;;6069004;27;20012;-70
2024/04/23 02:52:03;;;;;;;8.60;4.20;;;;;;;;;;6041839;27;20008;-70
2024/04/23 02:54:54;;;;;;;8.13;3.42;;;;;;;;;;6057356;27;20023;-70
2024/04/23 02:57:45;;;;;;;2.88;2.60;;;;;;;;;;6069802;27;20019;-70
2024/04/23 03:00:36;;;;;;;7.30;3.15;;;;;;;;;;6063019;27;20012;-70
2024/04/23 03:03:26;;;;;;;11.85;5.43;;;;;;;;;;6041179;27;20087;-70
2024/04/23 03:06:17;;;;;;;3.90;2.95;;;;;;;;;;6041166;27;20628;-70
2024/04/23 03:09:08;;;;;;;5.72;3.72;;;;;;;;;;6040476;27;20012;-69
2024/04/23 03:11:59;;;;;;;5.85;3.75;;;;;;;;;;6017225;27;20064;-70
2024/04/23 03:14:50;;;;;;;6.72;2.83;;;;;;;;;;6026957;27;20008;-70
2024/04/23 03:17:41;;;;;;;4.93;2.95;;;;;;;;;;6068952;27;20018;-70
2024/04/23 03:20:32;;;;;;;5.35;3.03;;;;;;;;;;6066063;27;20379;-70
2024/04/23 03:23:23;;;;;;;8.43;3.63;;;;;;;;;;6035442;27;20012;-70
2024/04/23 03:26:14;;;;;;;9.95;3.03;;;;;;;;;;6069622;27;20017;-70
2024/04/23 03:29:05;;;;;;;4.40;3.03;;;;;;;;;;6072837;27;20015;-70
2024/04/23 03:32:04;;;;;;;8.07;3.33;;;;;;;;;;6053461;27;20008;-70
2024/04/23 03:34:55;;;;;;;13.13;3.33;;;;;;;;;;6064659;27;20063;-70
2024/04/23 03:37:46;;;;;;;10.27;3.42;;;;;;;;;;6072982;27;20007;-70
2024/04/23 03:40:37;;;;;;;4.63;2.65;;;;;;;;;;6072018;27;20007;-69
2024/04/23 03:43:28;;;;;;;8.18;3.20;;;;;;;;;;6040230;27;20039;-70
2024/04/23 03:46:19;;;;;;;5.40;3.50;;;;;;;;;;6073023;27;20012;-70
2024/04/23 03:49:10;;;;;;;6.75;3.60;;;;;;;;;;6071743;27;20022;-69
2024/04/23 03:52:08;;;;;;;7.13;3.85;;;;;;;;;;6054570;27;20040;-69
2024/04/23 03:54:59;;;;;;;7.93;2.90;;;;;;;;;;6061766;27;20019;-70
2024/04/23 03:57:50;;;;;;;8.10;4.18;;;;;;;;;;6072818;27;20371;-70
2024/04/23 04:00:41;;;;;;;3.90;2.80;;;;;;;;;;6043678;27;20386;-69
2024/04/23 04:06:41;;;;;;;5.65;3.40;;;;;;;;;;6048245;27;20354;-70
2024/04/23 04:09:32;;;;;;;11.35;4.10;;;;;;;;;;6072228;27;20007;-69
2024/04/23 04:12:23;;;;;;;7.50;4.32;;;;;;;;;;6023637;27;20018;-69
2024/04/23 04:15:14;;;;;;;10.07;5.13;;;;;;;;;;6064186;27;20007;-70
2024/04/23 04:18:05;;;;;;;16.52;5.75;;;;;;;;;;6071277;27;20048;-70
2024/04/23 04:20:56;;;;;;;5.93;4.20;;;;;;;;;;6072763;27;20007;-70
2024/04/23 04:23:47;;;;;;;7.93;4.88;;;;;;;;;;6044741;27;20008;-69
2024/04/23 04:26:56;;;;;;;11.57;6.10;;;;;;;;;;6050839;27;20029;-69
2024/04/23 04:29:47;;;;;;;4.93;2.40;;;;;;;;;;6071671;27;20008;-69
2024/04/23 04:32:38;;;;;;;9.57;3.78;;;;;;;;;;6023263;27;20017;-69
2024/04/23 04:35:29;;;;;;;5.28;3.17;;;;;;;;;;6071098;27;20021;-69
2024/04/23 04:38:20;;;;;;;3.90;2.60;;;;;;;;;;6070363;27;20465;-70
2024/04/23 04:41:11;;;;;;;9.25;4.40;;;;;;;;;;6072412;27;20018;-69
2024/04/23 04:44:02;;;;;;;5.40;4.00;;;;;;;;;;6047571;27;20443;-69
2024/04/23 04:46:53;;;;;;;7.43;2.75;;;;;;;;;;6072514;27;20035;-69
2024/04/23 04:49:44;;;;;;;7.13;4.70;;;;;;;;;;6071135;27;20008;-70
2024/04/23 04:52:35;;;;;;;8.23;5.05;;;;;;;;;;6055475;27;20347;-70
2024/04/23 04:55:26;;;;;;;3.88;2.55;;;;;;;;;;6066163;27;20022;-70
2024/04/23 04:58:16;;;;;;;3.95;1.95;;;;;;;;;;6042367;27;20446;-69
2024/04/23 05:01:09;;;;;;;5.50;2.60;;;;;;;;;;6072134;27;20022;-70
2024/04/23 05:04:00;;;;;;;17.48;4.07;;;;;;;;;;6025328;27;20022;-70
2024/04/23 05:06:51;;;;;;;3.25;2.83;;;;;;;;;;6064812;27;20016;-70
2024/04/23 05:09:43;;;;;;;6.88;3.58;;;;;;;;;;6055904;27;20351;-70
2024/04/23 05:12:38;;;;;;;3.22;2.03;;;;;;;;;;6072044;27;20035;-70
2024/04/23 05:15:29;;;;;;;7.57;2.63;;;;;;;;;;6071734;27;20446;-70
2024/04/23 05:18:20;;;;;;;2.85;2.05;;;;;;;;;;6066887;27;20031;-70
2024/04/23 05:21:12;;;;;;;10.40;2.63;;;;;;;;;;6033520;27;20469;-70
2024/04/23 05:24:03;;;;;;;5.53;2.70;;;;;;;;;;6033267;27;20026;-70
2024/04/23 05:26:53;;;;;;;6.65;3.83;;;;;;;;;;6033864;27;20036;-70
2024/04/23 05:29:51;;;;;;;9.90;4.43;;;;;;;;;;6032511;27;20023;-70
2024/04/23 05:32:47;;;;;;;5.13;3.03;;;;;;;;;;6033050;27;20012;-70
2024/04/23 05:35:38;;;;;;;4.03;3.28;;;;;;;;;;6033403;27;20016;-70
2024/04/23 05:38:29;;;;;;;1.30;1.20;;;;;;;;;;6032263;27;20030;-70
2024/04/23 05:41:20;;;;;;;3.35;2.38;;;;;;;;;;6033486;27;20044;-70
2024/04/23 05:44:11;;;;;;;3.20;2.38;;;;;;;;;;6032966;27;20020;-70
2024/04/23 05:47:02;;;;;;;3.53;3.05;;;;;;;;;;6033191;27;20020;-70
2024/04/23 05:50:49;;;;;;;4.85;2.25;;;;;;;;;;6032070;27;20008;-70
2024/04/23 05:54:36;;;;;;;4.68;2.70;;;;;;;;;;6032897;27;20342;-70
2024/04/23 05:57:27;;;;;;;5.15;3.00;;;;;;;;;;6032748;27;20004;-71
2024/04/23 06:00:18;;;;;;;4.93;2.45;;;;;;;;;;6032462;27;20350;-71
2024/04/23 06:03:09;;;;;;;5.93;2.67;;;;;;;;;;6032249;27;20009;-71
2024/04/23 06:06:00;;;;;;;5.70;2.63;;;;;;;;;;6033650;27;20008;-71
2024/04/23 06:08:51;;;;;;;4.10;2.63;;;;;;;;;;6032225;27;20080;-71
2024/04/23 06:11:41;;;;;;;1.92;1.60;;;;;;;;;;6032961;27;20020;-71
2024/04/23 06:14:33;;;;;;;2.33;1.85;;;;;;;;;;6032406;27;20008;-72
2024/04/23 06:17:27;;;;;;;1.38;1.23;;;;;;;;;;6032455;27;20040;-72
2024/04/23 06:20:31;;;;;;;2.40;1.30;;;;;;;;;;6031649;27;20420;-72
2024/04/23 06:23:23;;;;;;;2.60;1.95;;;;;;;;;;6032349;27;20024;-72
2024/04/23 06:26:14;;;;;;;2.97;2.22;;;;;;;;;;6032719;27;20044;-72
2024/04/23 06:29:05;;;;;;;5.85;3.17;;;;;;;;;;6031901;27;20031;-71
2024/04/23 06:31:56;;;;;;;9.45;2.28;;;;;;;;;;6033294;27;20008;-72
2024/04/23 06:34:49;;;;;;;2.20;1.95;;;;;;;;;;6031952;27;20019;-72
2024/04/23 06:37:40;;;;;;;3.25;1.60;;;;;;;;;;6004802;27;20365;-71
2024/04/23 06:40:31;;;;;;;2.95;1.80;;;;;;;;;;6032016;27;20005;-72
2024/04/23 06:43:22;;;;;;;2.03;1.48;;;;;;;;;;6032285;27;20057;-71
2024/04/23 06:46:13;;;;;;;3.00;2.70;;;;;;;;;;6032690;27;20351;-72
2024/04/23 06:49:03;;;;;;;2.45;2.13;;;;;;;;;;6031447;27;20008;-71
2024/04/23 06:51:55;;;;;;;2.70;2.17;;;;;;;;;;6032244;27;20461;-72
2024/04/23 06:54:45;;;;;;;2.78;2.45;;;;;;;;;;6031818;27;20381;-72
2024/04/23 06:57:38;;;;;;;3.03;2.47;;;;;;;;;;6003874;27;20342;-72
2024/04/23 07:00:29;;;;;;;2.17;1.63;;;;;;;;;;6031108;27;20439;-72
2024/04/23 07:03:20;;;;;;;8.57;3.70;;;;;;;;;;6030377;27;20041;-72
2024/04/23 07:06:10;;;;;;;1.98;1.88;;;;;;;;;;6003624;27;20015;-71
2024/04/23 07:09:01;;;;;;;5.97;2.40;;;;;;;;;;6031576;27;20023;-72
2024/04/23 07:11:52;;;;;;;4.53;3.80;;;;;;;;;;6031996;27;20048;-72
2024/04/23 07:14:43;;;;;;;5.15;4.15;;;;;;;;;;6031281;27;20412;-72
2024/04/23 07:17:34;;;;;;;3.13;2.45;;;;;;;;;;6031689;27;20027;-71
2024/04/23 07:20:26;;;;;;;17.90;8.15;;;;;;;;;;6029883;27;20498;-72
2024/04/23 07:23:17;;;;;;;6.72;5.60;;;;;;;;;;6031220;27;20014;-72
2024/04/23 07:26:07;;;;;;;2.70;2.45;;;;;;;;;;6031391;27;20019;-72
2024/04/23 07:28:58;;;;;;;4.65;3.13;;;;;;;;;;6015926;27;20007;-72
2024/04/23 07:31:49;;;;;;;5.20;2.78;;;;;;;;;;6038736;27;20051;-72
2024/04/23 07:34:40;;;;;;;2.95;2.10;;;;;;;;;;6057471;27;20007;-72
2024/04/23 07:37:32;;;;;;;7.22;3.13;;;;;;;;;;6069386;27;20021;-72
2024/04/23 07:40:23;;;;;;;3.97;2.80;;;;;;;;;;6059001;27;20013;-72
2024/04/23 07:43:14;;;;;;;3.40;1.88;;;;;;;;;;6033552;27;20040;-72
2024/04/23 07:46:05;;;;;;;2.92;2.63;;;;;;;;;;6013811;27;20021;-72
2024/04/23 07:48:56;;;;;;;2.65;2.45;;;;;;;;;;6068417;27;20012;-73
2024/04/23 07:51:47;;;;;;;2.90;2.65;;;;;;;;;;6041742;27;20448;-72
2024/04/23 07:54:38;;;;;;;5.28;3.83;;;;;;;;;;6052347;27;20007;-73
2024/04/23 07:57:29;;;;;;;8.30;4.53;;;;;;;;;;6069084;27;20039;-72
2024/04/23 08:00:21;;;;;;;10.93;3.53;;;;;;;;;;6062440;27;20009;-73
2024/04/23 08:03:12;;;;;;;2.35;2.15;;;;;;;;;;6036907;27;20022;-72
2024/04/23 08:06:05;;;;;;;5.07;3.90;;;;;;;;;;6068820;27;20007;-73
2024/04/23 08:08:56;;;;;;;6.10;3.28;;;;;;;;;;6068707;27;20095;-73
2024/04/23 08:11:46;;;;;;;1.65;1.38;;;;;;;;;;6044415;27;20036;-73
2024/04/23 08:14:37;;;;;;;3.80;2.63;;;;;;;;;;6055428;27;20019;-73
2024/04/23 08:17:29;;;;;;;1.80;1.70;;;;;;;;;;6072408;27;20019;-73
2024/04/23 08:20:20;;;;;;;2.30;2.10;;;;;;;;;;6067385;27;20031;-73
2024/04/23 08:23:11;;;;;;;11.27;4.57;;;;;;;;;;6007492;27;20008;-73
2024/04/23 08:26:09;;;;;;;4.55;2.80;;;;;;;;;;6072378;27;20008;-73
2024/04/23 08:29:01;;;;;;;45.22;21.35;;;;;;;;;;6072397;27;20008;-73
2024/04/23 08:31:52;;;;;;;22.10;13.65;;;;;;;;;;6050117;27;20016;-73
2024/04/23 08:34:43;;;;;;;189.70;123.78;;;;;;;;;;6060845;27;20015;-74
2024/04/23 08:37:34;;;;;;;13.25;7.63;;;;;;;;;;6043604;27;20012;-74
2024/04/23 08:40:26;;;;;;;26.23;16.23;;;;;;;;;;6070672;27;20008;-73
2024/04/23 08:43:25;;;;;;;29.55;16.52;;;;;;;;;;6037350;27;20123;-74
2024/04/23 08:46:16;;;;;;;26.50;10.73;;;;;;;;;;6044662;27;20004;-73
2024/04/23 08:49:10;;;;;;;6.22;3.55;;;;;;;;;;6071055;27;20008;-73
2024/04/23 08:52:01;;;;;;;27.77;13.30;;;;;;;;;;6050816;27;20419;-73
2024/04/23 08:54:52;;;;;;;12.05;5.82;;;;;;;;;;5981093;27;20148;-74
2024/04/23 08:57:43;;;;;;;12.77;7.20;;;;;;;;;;5995865;27;20005;-74
2024/04/23 09:00:37;;;;;;;44.13;16.40;;;;;;;;;;6035848;27;20038;-74
2024/04/23 09:03:47;;;;;;;4.63;3.33;;;;;;;;;;5997496;27;20373;-74
2024/04/23 09:06:39;;;;;;;4.22;2.53;;;;;;;;;;6072088;27;20008;-74
2024/04/23 09:09:31;;;;;;;32.15;17.05;;;;;;;;;;6042986;27;20022;-74
2024/04/23 09:12:24;;;;;;;10.15;4.57;;;;;;;;;;6048619;27;20040;-74
2024/04/23 09:15:14;;;;;;;75.65;28.88;;;;;;;;;;5975240;27;20045;-73
2024/04/23 09:18:07;;;;;;;107.30;45.45;;;;;;;;;;6006081;27;20043;-73
2024/04/23 09:21:00;;;;;;;16.88;8.27;;;;;;;;;;6069554;27;20147;-74
2024/04/23 09:23:51;;;;;;;14.43;6.40;;;;;;;;;;6043872;27;20008;-74
2024/04/23 09:26:43;;;;;;;13.50;7.38;;;;;;;;;;6043954;27;20012;-73
2024/04/23 09:29:34;;;;;;;9.30;5.65;;;;;;;;;;6054139;27;20018;-74
2024/04/23 09:32:25;;;;;;;6.25;3.53;;;;;;;;;;6071333;27;20021;-74
2024/04/23 09:35:17;;;;;;;4.88;3.63;;;;;;;;;;6070937;27;20083;-74
2024/04/23 09:38:07;;;;;;;6.68;3.47;;;;;;;;;;6049549;27;20455;-74
2024/04/23 09:41:02;;;;;;;14.43;3.53;;;;;;;;;;6072333;27;20023;-74
2024/04/23 09:43:54;;;;;;;3.55;2.38;;;;;;;;;;6071296;27;20008;-74
2024/04/23 09:46:46;;;;;;;4.07;2.42;;;;;;;;;;6068753;27;20015;-74
2024/04/23 09:49:36;;;;;;;6.82;4.13;;;;;;;;;;6058220;27;20086;-74
2024/04/23 09:52:31;;;;;;;3.95;2.97;;;;;;;;;;6071277;27;20007;-74
2024/04/23 09:55:24;;;;;;;9.27;3.38;;;;;;;;;;6071305;27;20372;-74
2024/04/23 09:58:14;;;;;;;6.43;3.55;;;;;;;;;;6052448;27;20041;-74
2024/04/23 10:01:07;;;;;;;5.10;3.42;;;;;;;;;;6071434;27;20040;-74
2024/04/23 10:04:03;;;;;;;3.75;2.60;;;;;;;;;;6070871;27;20018;-74
2024/04/23 10:06:55;;;;;;;2.97;2.10;;;;;;;;;;6065082;27;20092;-74
2024/04/23 10:09:47;;;;;;;3.22;2.30;;;;;;;;;;6032412;27;20022;-74
2024/04/23 10:12:42;;;;;;;5.88;4.13;;;;;;;;;;6032557;27;20023;-74
2024/04/23 10:15:41;;;;;;;3.95;3.17;;;;;;;;;;6031544;27;20080;-74
2024/04/23 10:18:54;;;;;;;5.57;3.58;;;;;;;;;;6015716;27;20036;-74
2024/04/23 10:21:45;;;;;;;6.50;2.55;;;;;;;;;;6070956;27;20023;-74
2024/04/23 10:24:37;;;;;;;3.50;2.58;;;;;;;;;;6065348;27;20339;-74
2024/04/23 10:27:30;;;;;;;5.22;3.05;;;;;;;;;;6004492;27;20036;-74
2024/04/23 10:30:25;;;;;;;5.20;3.35;;;;;;;;;;5973413;27;20475;-74
2024/04/23 10:33:17;;;;;;;3.78;2.58;;;;;;;;;;6009323;27;20031;-74
2024/04/23 10:36:10;;;;;;;13.82;3.35;;;;;;;;;;6016394;27;20346;-74
2024/04/23 10:39:02;;;;;;;4.82;2.97;;;;;;;;;;6017393;27;20026;-74
2024/04/23 10:41:56;;;;;;;4.80;2.33;;;;;;;;;;6042828;27;20035;-74
2024/04/23 10:44:47;;;;;;;7.60;3.40;;;;;;;;;;6037397;27;20011;-74
2024/04/23 10:47:52;;;;;;;3.97;2.47;;;;;;;;;;6032511;27;20008;-74
2024/04/23 10:50:53;;;;;;;2.70;2.47;;;;;;;;;;6031629;27;20083;-74
2024/04/23 10:53:44;;;;;;;4.97;2.88;;;;;;;;;;6031921;27;20075;-74
2024/04/23 10:56:36;;;;;;;3.88;2.60;;;;;;;;;;6003528;27;20022;-74
2024/04/23 10:59:31;;;;;;;3.83;2.33;;;;;;;;;;6031787;27;20040;-73
2024/04/23 11:02:25;;;;;;;5.70;3.15;;;;;;;;;;6031761;27;20008;-74
2024/04/23 11:05:17;;;;;;;6.88;2.33;;;;;;;;;;6030049;27;20008;-74
2024/04/23 11:08:09;;;;;;;5.25;3.03;;;;;;;;;;6031076;27;20440;-74
2024/04/23 11:11:07;;;;;;;3.05;2.03;;;;;;;;;;6032143;27;20009;-74
2024/04/23 11:13:58;;;;;;;3.95;3.20;;;;;;;;;;6030233;27;20008;-74
2024/04/23 11:17:02;;;;;;;2.75;2.10;;;;;;;;;;6031363;27;20020;-74
2024/04/23 11:19:56;;;;;;;3.30;2.50;;;;;;;;;;6031192;27;20040;-74
2024/04/23 11:22:53;;;;;;;3.63;2.78;;;;;;;;;;6031727;27;20421;-74
2024/04/23 11:25:45;;;;;;;3.30;2.92;;;;;;;;;;6030889;27;20411;-74
2024/04/23 11:28:37;;;;;;;12.23;7.28;;;;;;;;;;6031303;27;20023;-75
2024/04/23 11:31:28;;;;;;;5.07;3.33;;;;;;;;;;6031619;27;20016;-74
2024/04/23 11:34:20;;;;;;;12.52;9.10;;;;;;;;;;6030159;27;20031;-74
2024/04/23 11:37:24;;;;;;;9.77;6.30;;;;;;;;;;6002839;27;20012;-74
2024/04/23 11:40:20;;;;;;;13.57;6.38;;;;;;;;;;6032601;27;20439;-74
2024/04/23 11:43:11;;;;;;;26.95;12.55;;;;;;;;;;6069170;27;20019;-74
2024/04/23 11:46:02;;;;;;;16.02;7.32;;;;;;;;;;6057228;27;20008;-74
2024/04/23 11:48:53;;;;;;;5.70;2.58;;;;;;;;;;6049535;27;20004;-74
2024/04/23 11:51:43;;;;;;;3.92;2.90;;;;;;;;;;6072973;27;20072;-74
2024/04/23 11:54:37;;;;;;;7.93;4.50;;;;;;;;;;6072820;27;20083;-74
2024/04/23 11:57:28;;;;;;;14.02;5.03;;;;;;;;;;6042880;27;20023;-74
2024/04/23 12:00:20;;;;;;;6.43;3.40;;;;;;;;;;6065253;27;20020;-74
2024/04/23 12:03:11;;;;;;;7.50;4.18;;;;;;;;;;6072111;27;20008;-74
2024/04/23 12:06:03;;;;;;;3.70;2.50;;;;;;;;;;6063377;27;20044;-73
2024/04/23 12:08:54;;;;;;;34.10;14.43;;;;;;;;;;6046161;27;20308;-72
2024/04/23 12:11:46;;;;;;;6.32;4.80;;;;;;;;;;6072581;27;20461;-74
2024/04/23 12:14:39;;;;;;;5.63;2.67;;;;;;;;;;6054156;27;20328;-73
2024/04/23 12:17:30;;;;;;;8.30;3.53;;;;;;;;;;6033838;27;20040;-72
2024/04/23 12:20:21;;;;;;;9.93;4.30;;;;;;;;;;6069358;27;20099;-72
2024/04/23 12:23:12;;;;;;;6.10;3.95;;;;;;;;;;6071621;27;20019;-73
2024/04/23 12:26:08;;;;;;;6.90;3.35;;;;;;;;;;6046229;27;20016;-73
2024/04/23 12:29:01;;;;;;;10.07;3.25;;;;;;;;;;6044843;27;20008;-72
2024/04/23 12:31:59;;;;;;;9.68;5.65;;;;;;;;;;6072078;27;20019;-72
2024/04/23 12:34:56;;;;;;;6.35;3.22;;;;;;;;;;6062862;27;20036;-73
2024/04/23 12:37:48;;;;;;;10.68;5.10;;;;;;;;;;6033909;27;20009;-73
2024/04/23 12:40:40;;;;;;;7.82;3.28;;;;;;;;;;6069595;27;20411;-73
2024/04/23 12:43:31;;;;;;;7.70;4.22;;;;;;;;;;6072153;27;20330;-74
2024/04/23 12:46:22;;;;;;;3.88;2.63;;;;;;;;;;6044509;27;20012;-73
2024/04/23 12:49:13;;;;;;;5.43;3.90;;;;;;;;;;6053845;27;20007;-73
2024/04/23 12:52:04;;;;;;;5.53;2.58;;;;;;;;;;6072052;27;20008;-74
2024/04/23 12:54:55;;;;;;;5.72;4.18;;;;;;;;;;6065496;27;20009;-69
2024/04/23 12:57:46;;;;;;;8.50;4.35;;;;;;;;;;6033695;27;20027;-68
2024/04/23 13:00:37;;;;;;;4.30;2.83;;;;;;;;;;5969542;27;20048;-69
2024/04/23 13:03:28;;;;;;;7.82;5.50;;;;;;;;;;6016097;27;20004;-69
2024/04/23 13:06:19;;;;;;;3.90;3.20;;;;;;;;;;6047409;27;20008;-69
2024/04/23 13:09:10;;;;;;;5.38;3.60;;;;;;;;;;6048912;27;20109;-69
2024/04/23 13:12:03;;;;;;;3.90;2.45;;;;;;;;;;6071539;27;20052;-69
2024/04/23 13:14:54;;;;;;;5.63;3.55;;;;;;;;;;6068676;27;20442;-69
2024/04/23 13:17:45;;;;;;;5.18;4.07;;;;;;;;;;6032994;27;20036;-69
2024/04/23 13:20:36;;;;;;;8.10;3.47;;;;;;;;;;6071288;27;20312;-69
2024/04/23 13:23:27;;;;;;;3.78;2.33;;;;;;;;;;6070366;27;20087;-69
2024/04/23 13:26:18;;;;;;;10.10;4.25;;;;;;;;;;6050785;27;20051;-69
2024/04/23 13:29:12;;;;;;;9.35;4.18;;;;;;;;;;6029513;27;20012;-69
2024/04/23 13:32:08;;;;;;;12.45;5.72;;;;;;;;;;6032989;27;20105;-69
2024/04/23 13:34:59;;;;;;;7.63;3.45;;;;;;;;;;6062690;27;20454;-69
2024/04/23 13:37:50;;;;;;;4.55;2.45;;;;;;;;;;6033206;27;20084;-70
2024/04/23 13:40:41;;;;;;;4.93;2.80;;;;;;;;;;6004250;27;20008;-69
2024/04/23 13:43:32;;;;;;;3.30;2.50;;;;;;;;;;6033103;27;20451;-69
2024/04/23 13:46:23;;;;;;;4.65;3.35;;;;;;;;;;6032625;27;20040;-69
2024/04/23 13:49:16;;;;;;;2.33;1.90;;;;;;;;;;6042172;27;20359;-69
2024/04/23 13:52:07;;;;;;;3.95;2.88;;;;;;;;;;6066430;27;20039;-69
2024/04/23 13:54:58;;;;;;;4.75;3.50;;;;;;;;;;6065292;27;20430;-69
2024/04/23 13:57:49;;;;;;;4.75;3.17;;;;;;;;;;6012598;27;20019;-69
2024/04/23 14:00:40;;;;;;;8.27;6.22;;;;;;;;;;6033221;27;20347;-69
2024/04/23 14:03:34;;;;;;;7.68;4.93;;;;;;;;;;6034265;27;20019;-69
2024/04/23 14:06:25;;;;;;;5.20;3.85;;;;;;;;;;6033705;27;20012;-69
2024/04/23 14:09:16;;;;;;;4.22;2.78;;;;;;;;;;6043621;27;20040;-69
2024/04/23 14:12:08;;;;;;;3.63;2.83;;;;;;;;;;6013937;27;20462;-69
2024/04/23 14:14:59;;;;;;;6.13;3.10;;;;;;;;;;6016455;27;20023;-69
2024/04/23 14:17:50;;;;;;;8.93;4.03;;;;;;;;;;6013179;27;20016;-69
2024/04/23 14:20:41;;;;;;;6.28;2.83;;;;;;;;;;6014577;27;20008;-69
2024/04/23 14:23:33;;;;;;;4.78;3.15;;;;;;;;;;6022751;27;20020;-69
2024/04/23 14:26:25;;;;;;;3.17;2.05;;;;;;;;;;6031534;27;20037;-69
2024/04/23 14:29:16;;;;;;;4.32;3.35;;;;;;;;;;6048683;27;20098;-69
2024/04/23 14:32:07;;;;;;;20.48;9.18;;;;;;;;;;6070333;27;20060;-69
2024/04/23 14:35:06;;;;;;;7.72;4.28;;;;;;;;;;6070097;27;20086;-70
2024/04/23 14:37:58;;;;;;;9.02;5.25;;;;;;;;;;6038082;27;20506;-69
2024/04/23 14:41:03;;;;;;;19.77;5.82;;;;;;;;;;6069542;27;20130;-69
2024/04/23 14:43:54;;;;;;;10.30;7.55;;;;;;;;;;6070022;27;20015;-69
2024/04/23 14:46:45;;;;;;;10.00;5.28;;;;;;;;;;6055727;27;20023;-69
2024/04/23 14:49:36;;;;;;;27.55;12.60;;;;;;;;;;6056395;27;20022;-69
2024/04/23 14:52:27;;;;;;;26.58;9.27;;;;;;;;;;6069804;27;20008;-69
2024/04/23 14:55:18;;;;;;;6.75;4.05;;;;;;;;;;6069682;27;20044;-70
2024/04/23 14:58:09;;;;;;;4.13;3.45;;;;;;;;;;6039420;27;20008;-69
2024/04/23 15:01:07;;;;;;;13.07;7.78;;;;;;;;;;6070208;27;20008;-69
2024/04/23 15:04:01;;;;;;;13.75;8.48;;;;;;;;;;6068791;27;20011;-69
2024/04/23 15:06:55;;;;;;;8.48;6.07;;;;;;;;;;6056981;27;20447;-69
2024/04/23 15:09:47;;;;;;;10.77;4.15;;;;;;;;;;6045268;27;20048;-69
2024/04/23 15:12:38;;;;;;;8.70;4.78;;;;;;;;;;6031351;27;20018;-69
2024/04/23 15:15:29;;;;;;;6.65;4.28;;;;;;;;;;6030755;27;20040;-69
2024/04/23 15:18:19;;;;;;;29.08;9.48;;;;;;;;;;6029384;27;20036;-69
2024/04/23 15:21:13;;;;;;;44.83;17.48;;;;;;;;;;6030781;27;20903;-70
2024/04/23 15:24:04;;;;;;;19.63;9.38;;;;;;;;;;6047717;27;20036;-69
2024/04/23 15:26:56;;;;;;;7.70;4.07;;;;;;;;;;6062873;27;20023;-69
2024/04/23 15:29:47;;;;;;;10.43;6.82;;;;;;;;;;6034224;27;20036;-70
2024/04/23 15:32:37;;;;;;;11.70;7.00;;;;;;;;;;6034458;27;20426;-69
2024/04/23 15:35:29;;;;;;;28.42;9.93;;;;;;;;;;6033709;27;20026;-69
2024/04/23 15:38:20;;;;;;;45.53;22.35;;;;;;;;;;6029377;27;20092;-69
2024/04/23 15:41:15;;;;;;;54.90;22.48;;;;;;;;;;6034169;27;20477;-69
2024/04/23 15:44:06;;;;;;;7.43;4.60;;;;;;;;;;6048700;27;20047;-69
2024/04/23 15:46:57;;;;;;;5.43;3.58;;;;;;;;;;6065734;27;20463;-69
2024/04/23 15:49:48;;;;;;;14.27;6.20;;;;;;;;;;6031114;27;20404;-69
2024/04/23 15:52:39;;;;;;;28.35;12.60;;;;;;;;;;6033861;27;20005;-69
2024/04/23 15:55:30;;;;;;;5.53;3.42;;;;;;;;;;6019504;27;20008;-69
2024/04/23 15:58:20;;;;;;;9.27;3.35;;;;;;;;;;6037968;27;20056;-69
2024/04/23 16:01:11;;;;;;;6.20;3.65;;;;;;;;;;6073084;27;20017;-69
2024/04/23 16:04:02;;;;;;;7.90;3.92;;;;;;;;;;6071747;27;20025;-69
2024/04/23 16:06:53;;;;;;;9.75;5.47;;;;;;;;;;6032649;27;20023;-69
2024/04/23 16:09:44;;;;;;;36.25;14.15;;;;;;;;;;6033875;27;20008;-69
2024/04/23 16:12:35;;;;;;;60.72;16.55;;;;;;;;;;6034140;27;20016;-69
2024/04/23 16:15:26;;;;;;;69.35;26.02;;;;;;;;;;6033843;27;20022;-69
2024/04/23 16:18:17;;;;;;;196.20;77.72;;;;;;;;;;6004220;27;20023;-69
2024/04/23 16:21:08;;;;;;;287.25;148.52;;;;;;;;;;6033837;27;20009;-69
2024/04/23 16:23:59;;;;;;;102.35;44.67;;;;;;;;;;6033276;27;20080;-69
2024/04/23 16:26:49;;;;;;;94.82;42.33;;;;;;;;;;6034103;27;20023;-69
2024/04/23 16:29:40;;;;;;;128.10;68.35;;;;;;;;;;6055598;27;20012;-69
2024/04/23 16:32:31;;;;;;;61.38;40.35;;;;;;;;;;6072352;27;20041;-69
2024/04/23 16:35:22;;;;;;;40.70;29.67;;;;;;;;;;6069851;27;20007;-69
2024/04/23 16:38:13;;;;;;;39.33;26.92;;;;;;;;;;6057287;27;20017;-69
2024/04/23 16:41:06;;;;;;;45.05;27.92;;;;;;;;;;6065180;27;20008;-69
2024/04/23 16:43:58;;;;;;;28.27;17.95;;;;;;;;;;6032346;27;20036;-69
2024/04/23 16:46:50;;;;;;;23.35;10.73;;;;;;;;;;6033324;27;20023;-69
2024/04/23 16:49:41;;;;;;;19.63;7.57;;;;;;;;;;6045221;27;20008;-69
2024/04/23 16:52:32;;;;;;;6.05;4.90;;;;;;;;;;6030546;27;20087;-69
2024/04/23 16:55:23;;;;;;;14.05;5.40;;;;;;;;;;6032910;27;20132;-69
2024/04/23 16:58:13;;;;;;;15.88;7.57;;;;;;;;;;6033097;27;20019;-69
2024/04/23 17:01:13;;;;;;;10.10;5.55;;;;;;;;;;6004604;27;20008;-69
2024/04/23 17:04:05;;;;;;;8.55;6.20;;;;;;;;;;6032501;27;20112;-69
2024/04/23 17:06:57;;;;;;;13.55;5.47;;;;;;;;;;6007903;27;20009;-69
2024/04/23 17:09:48;;;;;;;5.20;3.92;;;;;;;;;;6043868;27;20008;-69
2024/04/23 17:12:39;;;;;;;9.77;5.47;;;;;;;;;;6039487;27;20058;-69
2024/04/23 17:15:30;;;;;;;7.65;4.80;;;;;;;;;;6030229;27;20381;-69